Time;durP1;ratioP1;P1;durP2;ratioP2;P2;SDS_P1;SDS_P2;PMS_P1;PMS_P2;Temp;Humidity;BMP_temperature;BMP_pressure;BME280_temperature;BME280_humidity;BME280_pressure;Samples;Min_cycle;Max_cycle;Signal;HPM_P1;HPM_P2
2022/09/25 00:01:32;;;;;;;35.73;19.13;;;;;;;10.12;93.39;95025.97;5129476;27;20578;-77
2022/09/25 00:03:59;;;;;;;31.37;18.43;;;;;;;10.04;93.87;95028.75;5131828;27;20198;-78
2022/09/25 00:06:28;;;;;;;34.10;19.47;;;;;;;10.08;93.51;95029.97;5129426;27;20206;-78
2022/09/25 00:08:57;;;;;;;28.93;17.23;;;;;;;10.06;93.67;95019.00;5128076;27;20219;-78
2022/09/25 00:11:27;;;;;;;27.90;16.20;;;;;;;9.94;94.07;95018.03;5128975;27;20716;-78
2022/09/25 00:13:55;;;;;;;27.73;15.73;;;;;;;9.94;93.09;95025.00;5134414;27;20207;-78
2022/09/25 00:16:24;;;;;;;27.73;15.17;;;;;;;9.94;93.29;95010.25;5130747;27;20693;-78
2022/09/25 00:21:37;;;;;;;25.90;16.83;;;;;;;9.94;93.83;95018.03;5131296;27;20194;-79
2022/09/25 00:24:08;;;;;;;26.60;17.03;;;;;;;9.95;94.76;95029.22;5131558;27;20196;-78
2022/09/25 00:26:37;;;;;;;28.47;16.37;;;;;;;9.95;93.70;95016.22;5131286;27;20204;-77
2022/09/25 00:29:05;;;;;;;31.43;16.67;;;;;;;9.84;94.40;95022.84;5132175;27;20246;-78
2022/09/25 00:31:32;;;;;;;30.80;18.13;;;;;;;9.56;95.98;95019.72;5133757;27;20231;-78
2022/09/25 00:34:00;;;;;;;28.63;17.47;;;;;;;9.26;96.62;95018.56;5133905;27;20195;-78
2022/09/25 00:36:28;;;;;;;31.17;18.00;;;;;;;8.82;99.07;95014.75;5128877;27;20210;-78
2022/09/25 00:38:55;;;;;;;32.30;18.67;;;;;;;8.71;100.00;95006.78;5128696;27;20224;-79
2022/09/25 00:41:26;;;;;;;33.10;18.90;;;;;;;8.79;100.00;95009.97;5130765;27;20203;-78
2022/09/25 00:43:55;;;;;;;36.30;19.07;;;;;;;8.90;100.00;95011.16;5134493;27;20278;-77
2022/09/25 00:46:27;;;;;;;36.23;18.17;;;;;;;9.00;99.51;94999.41;5131383;27;20217;-77
2022/09/25 00:48:59;;;;;;;32.23;17.27;;;;;;;9.00;99.51;95009.75;5135183;27;20211;-77
2022/09/25 00:51:30;;;;;;;27.83;17.13;;;;;;;9.05;98.83;95010.00;5134896;27;20195;-78
2022/09/25 00:54:03;;;;;;;35.53;17.17;;;;;;;9.15;98.96;95019.16;5130626;27;21240;-77
2022/09/25 00:56:37;;;;;;;33.97;16.43;;;;;;;9.08;98.39;94999.22;5127927;27;20230;-77
2022/09/25 00:59:06;;;;;;;27.27;14.80;;;;;;;9.16;98.29;95002.59;5134971;27;20691;-78
2022/09/25 01:01:33;;;;;;;24.30;15.33;;;;;;;9.17;97.68;95011.97;5133839;27;20203;-79
2022/09/25 01:04:00;;;;;;;25.43;15.77;;;;;;;9.20;97.57;95003.81;5134420;27;20210;-79
2022/09/25 01:06:28;;;;;;;28.57;15.20;;;;;;;9.26;97.42;95000.41;5133411;27;20207;-77
2022/09/25 01:08:57;;;;;;;27.03;15.50;;;;;;;9.26;97.69;95003.81;5132545;27;20247;-78
2022/09/25 01:11:23;;;;;;;31.07;15.70;;;;;;;9.23;97.28;94998.22;5132081;27;20204;-78
2022/09/25 01:13:56;;;;;;;26.47;14.60;;;;;;;9.23;97.53;94991.25;5132905;27;20214;-77
2022/09/25 01:16:31;;;;;;;24.43;14.17;;;;;;;9.20;97.23;94996.81;5130362;27;20199;-79
2022/09/25 01:19:11;;;;;;;21.13;14.07;;;;;;;9.08;97.05;94981.06;5134847;27;20201;-78
2022/09/25 01:21:44;;;;;;;28.27;15.03;;;;;;;9.07;97.02;94992.44;5131030;27;20195;-78
2022/09/25 01:24:26;;;;;;;22.90;14.40;;;;;;;9.17;97.01;94999.00;5133940;27;20199;-78
2022/09/25 01:27:30;;;;;;;23.47;14.13;;;;;;;9.15;97.21;94998.41;5133921;27;20191;-79
2022/09/25 01:30:04;;;;;;;23.03;13.77;;;;;;;9.12;96.01;94989.22;5129452;27;20223;-78
2022/09/25 01:32:40;;;;;;;24.33;14.03;;;;;;;9.12;97.21;94997.81;5130968;27;20281;-79
2022/09/25 01:35:15;;;;;;;21.90;14.40;;;;;;;9.09;97.07;94995.63;5132935;27;20202;-79
2022/09/25 01:37:46;;;;;;;25.70;14.43;;;;;;;9.01;98.50;94998.41;5137062;27;20195;-78
2022/09/25 01:40:18;;;;;;;22.43;13.93;;;;;;;8.55;97.42;94992.38;5131966;27;20210;-79
2022/09/25 01:42:51;;;;;;;23.07;14.50;;;;;;;7.96;100.00;94992.19;5132666;27;20578;-78
2022/09/25 01:45:26;;;;;;;25.47;14.40;;;;;;;8.09;100.00;94994.03;5135523;27;20218;-77
2022/09/25 01:47:57;;;;;;;22.27;14.10;;;;;;;8.17;100.00;95002.41;5132417;27;20564;-77
2022/09/25 01:50:30;;;;;;;23.47;14.33;;;;;;;8.26;100.00;94987.50;5134078;27;20202;-76
2022/09/25 01:53:02;;;;;;;21.57;14.27;;;;;;;8.40;100.00;95002.09;5129709;27;20235;-76
2022/09/25 01:55:35;;;;;;;24.20;14.67;;;;;;;8.54;100.00;95008.94;5130369;27;20204;-78
2022/09/25 01:58:09;;;;;;;28.10;14.70;;;;;;;8.57;100.00;95005.16;5131025;27;20255;-77
2022/09/25 02:00:40;;;;;;;22.53;13.97;;;;;;;8.61;100.00;95006.34;5135772;27;20210;-78
2022/09/25 02:03:11;;;;;;;25.00;14.73;;;;;;;8.63;100.00;94997.38;5133246;27;20712;-78
2022/09/25 02:05:43;;;;;;;26.30;14.50;;;;;;;8.66;99.04;94989.22;5135271;27;20253;-78
2022/09/25 02:08:15;;;;;;;30.83;14.67;;;;;;;8.74;99.63;94990.84;5135353;27;20203;-78
2022/09/25 02:10:46;;;;;;;26.27;14.23;;;;;;;8.70;99.22;94985.25;5131202;27;20195;-78
2022/09/25 02:13:16;;;;;;;23.63;13.77;;;;;;;8.67;98.85;94993.41;5134112;27;20270;-79
2022/09/25 02:15:48;;;;;;;22.40;13.63;;;;;;;8.69;98.81;94993.19;5133162;27;20203;-78
2022/09/25 02:21:13;;;;;;;26.60;14.17;;;;;;;8.66;98.12;94991.78;5133265;27;20186;-78
2022/09/25 02:23:49;;;;;;;21.67;13.73;;;;;;;8.69;97.99;95003.56;5133234;27;20190;-78
2022/09/25 02:26:24;;;;;;;21.43;13.07;;;;;;;8.69;97.56;95003.56;5130191;27;20195;-79
2022/09/25 02:28:52;;;;;;;22.03;13.40;;;;;;;8.68;97.84;95009.75;5135682;27;20219;-78
2022/09/25 02:31:23;;;;;;;25.63;13.50;;;;;;;8.64;98.65;95011.13;5133515;27;20207;-79
2022/09/25 02:33:50;;;;;;;18.93;13.40;;;;;;;8.74;98.04;94998.59;5141497;27;20251;-82
2022/09/25 02:36:20;;;;;;;21.50;14.53;;;;;;;8.71;98.31;94999.81;5139238;27;20203;-81
2022/09/25 02:38:49;;;;;;;24.77;14.67;;;;;;;8.65;99.23;94997.19;5134496;27;20318;-81
2022/09/25 02:41:22;;;;;;;28.13;15.53;;;;;;;8.64;98.01;95001.56;5134075;27;20207;-81
2022/09/25 02:43:58;;;;;;;26.10;14.73;;;;;;;8.60;98.25;94992.59;5133461;27;20211;-81
2022/09/25 02:46:39;;;;;;;24.87;15.50;;;;;;;8.58;98.22;94999.75;5133657;27;20206;-80
2022/09/25 02:49:17;;;;;;;26.20;14.73;;;;;;;8.04;98.91;94983.47;5136194;27;20207;-81
2022/09/25 02:51:52;;;;;;;23.80;14.90;;;;;;;7.79;99.92;94998.69;5136676;27;20210;-81
2022/09/25 02:54:24;;;;;;;28.33;16.10;;;;;;;7.67;100.00;94995.06;5136758;27;20206;-80
2022/09/25 02:56:57;;;;;;;28.53;15.73;;;;;;;7.70;100.00;94990.28;5138348;27;20199;-80
2022/09/25 02:59:29;;;;;;;25.10;15.77;;;;;;;7.76;100.00;94992.09;5139704;27;20199;-81
2022/09/25 03:01:59;;;;;;;23.23;14.37;;;;;;;7.87;100.00;94976.03;5128722;27;20199;-80
2022/09/25 03:04:28;;;;;;;22.77;15.23;;;;;;;8.01;100.00;94982.06;5132121;27;20199;-81
2022/09/25 03:06:56;;;;;;;25.93;14.70;;;;;;;8.18;100.00;94988.50;5128887;27;20233;-80
2022/09/25 03:09:24;;;;;;;26.20;16.53;;;;;;;8.20;100.00;94983.91;5131882;27;20219;-81
2022/09/25 03:11:51;;;;;;;27.87;16.27;;;;;;;8.28;100.00;94995.94;5131935;27;20214;-81
2022/09/25 03:14:18;;;;;;;25.10;15.77;;;;;;;8.36;99.97;94990.56;5131297;27;20199;-81
2022/09/25 03:16:48;;;;;;;26.67;15.40;;;;;;;8.37;100.00;94982.59;5131836;27;20210;-80
2022/09/25 03:19:18;;;;;;;23.73;15.27;;;;;;;8.51;99.79;94996.38;5131155;27;20283;-80
2022/09/25 03:21:45;;;;;;;24.20;14.90;;;;;;;8.50;100.00;94990.41;5133771;27;20203;-80
2022/09/25 03:24:12;;;;;;;25.83;15.97;;;;;;;8.60;99.87;94990.00;5130037;27;20583;-80
2022/09/25 03:26:39;;;;;;;23.87;14.70;;;;;;;8.61;99.41;94991.59;5130862;28;20201;-79
2022/09/25 03:29:06;;;;;;;26.57;14.83;;;;;;;8.52;99.48;94979.81;5130674;28;20797;-80
2022/09/25 03:31:34;;;;;;;21.47;14.93;;;;;;;8.61;98.83;94986.41;5132482;27;20203;-81
2022/09/25 03:34:01;;;;;;;22.50;14.10;;;;;;;8.62;99.07;94987.22;5131031;27;20732;-81
2022/09/25 03:36:31;;;;;;;26.73;15.03;;;;;;;8.60;98.47;94986.63;5127813;28;20234;-80
2022/09/25 03:38:58;;;;;;;24.87;14.23;;;;;;;8.60;98.58;94990.00;5127704;28;20199;-80
2022/09/25 03:41:28;;;;;;;20.70;13.80;;;;;;;8.57;98.50;94993.78;5131517;28;20203;-81
2022/09/25 03:43:55;;;;;;;21.93;13.77;;;;;;;8.59;98.85;94993.59;5131537;28;20196;-83
2022/09/25 03:46:24;;;;;;;23.50;14.67;;;;;;;8.35;99.77;94997.53;5134343;27;20210;-77
2022/09/25 03:48:51;;;;;;;22.23;14.40;;;;;;;7.86;99.60;94995.13;5131335;27;20238;-75
2022/09/25 03:51:18;;;;;;;21.63;14.50;;;;;;;7.43;100.00;94991.13;5132112;27;20214;-75
2022/09/25 03:53:48;;;;;;;23.03;14.63;;;;;;;7.56;100.00;94986.03;5131316;27;20231;-75
2022/09/25 03:56:17;;;;;;;25.97;15.27;;;;;;;7.73;100.00;94989.13;5132059;27;20662;-76
2022/09/25 03:58:45;;;;;;;22.40;14.37;;;;;;;7.80;100.00;94993.31;5133050;27;20199;-76
2022/09/25 04:01:11;;;;;;;24.00;14.47;;;;;;;7.88;100.00;94987.97;5133758;27;20608;-77
2022/09/25 04:03:39;;;;;;;22.67;15.23;;;;;;;8.00;100.00;94989.03;5134596;27;20203;-75
2022/09/25 04:06:08;;;;;;;28.40;15.90;;;;;;;8.06;100.00;94992.63;5136311;27;20256;-75
2022/09/25 04:08:36;;;;;;;38.40;20.10;;;;;;;8.12;100.00;94998.81;5134275;27;20203;-75
2022/09/25 04:11:05;;;;;;;34.10;19.20;;;;;;;8.21;100.00;95005.41;5137829;27;20206;-75
2022/09/25 04:13:35;;;;;;;44.77;19.57;;;;;;;8.24;100.00;94995.47;5138571;27;20210;-77
2022/09/25 04:16:03;;;;;;;35.30;19.17;;;;;;;8.21;100.00;95002.84;5135657;27;20236;-77
2022/09/25 04:18:31;;;;;;;37.80;20.67;;;;;;;8.22;100.00;95002.66;5133455;27;20203;-78
2022/09/25 04:20:58;;;;;;;35.97;21.23;;;;;;;8.26;100.00;94998.66;5137511;27;20492;-77
2022/09/25 04:23:25;;;;;;;32.83;19.80;;;;;;;8.26;100.00;95008.22;5137726;27;20277;-77
2022/09/25 04:25:52;;;;;;;36.00;20.70;;;;;;;8.21;100.00;95006.22;5138079;27;20198;-76
2022/09/25 04:28:21;;;;;;;40.93;21.13;;;;;;;8.20;100.00;94996.03;5135985;27;20211;-77
2022/09/25 04:30:47;;;;;;;38.90;21.73;;;;;;;8.13;99.98;94990.88;5135932;27;20235;-77
2022/09/25 04:35:59;;;;;;;45.17;22.10;;;;;;;8.20;99.94;95016.75;5137118;27;20570;-76
2022/09/25 04:38:27;;;;;;;36.90;20.07;;;;;;;8.29;99.81;95005.28;5135233;27;20286;-76
2022/09/25 04:40:53;;;;;;;33.03;19.20;;;;;;;8.26;99.29;95009.03;5135962;27;20203;-74
2022/09/25 04:43:22;;;;;;;30.13;17.20;;;;;;;8.25;99.14;95012.63;5136480;27;20214;-75
2022/09/25 04:45:50;;;;;;;24.93;17.07;;;;;;;8.13;99.72;95009.00;5137268;27;20214;-75
2022/09/25 04:48:17;;;;;;;30.87;17.80;;;;;;;8.08;99.48;95005.38;5138072;27;20916;-77
2022/09/25 04:50:48;;;;;;;36.13;21.80;;;;;;;8.02;99.67;95000.97;5136983;27;20226;-75
2022/09/25 04:53:15;;;;;;;39.10;24.00;;;;;;;7.82;99.81;95003.50;5134474;27;20233;-75
2022/09/25 04:55:42;;;;;;;40.37;22.00;;;;;;;7.54;100.00;95007.88;5137323;27;20217;-74
2022/09/25 04:58:10;;;;;;;40.40;25.40;;;;;;;7.15;100.00;95006.66;5136974;27;20203;-77
2022/09/25 05:00:39;;;;;;;36.67;23.10;;;;;;;7.18;100.00;95006.28;5135367;27;20214;-78
2022/09/25 05:03:06;;;;;;;37.83;25.17;;;;;;;7.30;100.00;95006.56;5135399;27;20576;-77
2022/09/25 05:05:34;;;;;;;35.77;20.87;;;;;;;7.40;100.00;95004.44;5136246;27;20199;-77
2022/09/25 05:08:02;;;;;;;35.50;21.03;;;;;;;7.57;100.00;95010.09;5137362;27;20203;-78
2022/09/25 05:10:31;;;;;;;30.93;21.73;;;;;;;7.76;100.00;95007.63;5136644;27;20227;-78
2022/09/25 05:13:02;;;;;;;32.67;21.20;;;;;;;7.90;100.00;95009.31;5137703;27;20204;-78
2022/09/25 05:15:30;;;;;;;36.53;22.03;;;;;;;8.04;100.00;95009.34;5134856;27;20203;-78
2022/09/25 05:18:03;;;;;;;35.53;19.80;;;;;;;8.19;100.00;94997.06;5130237;27;20204;-78
2022/09/25 05:20:30;;;;;;;31.77;18.87;;;;;;;8.31;100.00;95000.72;5128888;27;20204;-78
2022/09/25 05:22:57;;;;;;;32.03;18.60;;;;;;;8.36;100.00;94998.34;5138085;27;20244;-78
2022/09/25 05:25:37;;;;;;;30.17;19.13;;;;;;;8.40;100.00;94994.34;5123199;27;20196;-78
2022/09/25 05:28:04;;;;;;;31.77;19.10;;;;;;;8.57;100.00;95000.78;5132591;27;20311;-74
2022/09/25 05:30:33;;;;;;;39.23;18.53;;;;;;;8.69;100.00;94990.59;5135258;27;20806;-74
2022/09/25 05:33:02;;;;;;;30.60;17.53;;;;;;;8.76;99.39;95002.59;5133455;27;20199;-74
2022/09/25 05:35:32;;;;;;;29.03;17.63;;;;;;;8.77;100.00;95000.81;5131543;27;20254;-75
2022/09/25 05:37:59;;;;;;;27.77;18.43;;;;;;;8.85;100.00;95001.41;5125000;27;20195;-79
2022/09/25 05:40:26;;;;;;;29.30;18.13;;;;;;;8.98;99.70;95005.78;5127367;27;20192;-74
2022/09/25 05:42:55;;;;;;;25.97;17.67;;;;;;;9.00;99.58;95007.16;5132954;27;20199;-74
2022/09/25 05:45:23;;;;;;;35.20;16.83;;;;;;;9.06;99.59;95005.59;5136119;27;20979;-74
2022/09/25 05:48:01;;;;;;;27.53;16.67;;;;;;;9.17;99.58;95011.97;5132198;27;20218;-74
2022/09/25 05:50:31;;;;;;;26.23;15.47;;;;;;;9.33;99.06;95016.75;5131861;27;20289;-75
2022/09/25 05:52:58;;;;;;;24.53;14.17;;;;;;;9.43;97.94;95011.97;5132388;27;20785;-74
2022/09/25 05:55:25;;;;;;;21.87;13.70;;;;;;;9.57;97.26;95014.34;5133388;27;20199;-74
2022/09/25 05:57:52;;;;;;;22.73;13.33;;;;;;;9.66;96.95;95013.13;5134003;27;20195;-74
2022/09/25 06:00:19;;;;;;;21.53;12.73;;;;;;;9.73;95.61;95010.50;5133651;27;20214;-74
2022/09/25 06:02:51;;;;;;;21.60;12.57;;;;;;;9.88;95.07;95011.06;5134557;27;20219;-74
2022/09/25 06:05:18;;;;;;;22.17;12.43;;;;;;;10.01;94.02;94999.84;5135293;27;20688;-75
2022/09/25 06:07:52;;;;;;;19.67;12.27;;;;;;;10.19;93.48;95003.38;5136283;27;20199;-75
2022/09/25 06:10:19;;;;;;;19.93;12.80;;;;;;;10.21;92.45;94996.19;5133188;27;20272;-75
2022/09/25 06:12:46;;;;;;;20.00;12.47;;;;;;;10.30;92.63;94998.53;5133993;27;20202;-75
2022/09/25 06:15:13;;;;;;;23.83;12.40;;;;;;;10.37;91.63;95001.88;5134322;27;20214;-75
2022/09/25 06:17:40;;;;;;;26.50;12.83;;;;;;;10.48;90.08;94999.44;5132711;27;20202;-72
2022/09/25 06:20:07;;;;;;;22.17;12.53;;;;;;;10.53;89.61;95006.63;5133050;27;20191;-76
2022/09/25 06:22:34;;;;;;;20.27;12.20;;;;;;;10.51;90.02;95017.22;5133384;27;20202;-77
2022/09/25 06:25:03;;;;;;;20.13;11.30;;;;;;;10.65;89.14;95017.91;5132968;27;20198;-74
2022/09/25 06:27:30;;;;;;;21.20;10.90;;;;;;;10.79;87.20;95017.63;5132324;27;20202;-74
2022/09/25 06:29:57;;;;;;;31.93;11.73;;;;;;;10.80;88.17;95018.44;5136091;27;20695;-75
2022/09/25 06:32:24;;;;;;;21.97;10.43;;;;;;;10.94;87.93;95016.56;5133219;27;20591;-74
2022/09/25 06:34:51;;;;;;;14.10;10.53;;;;;;;11.05;87.59;95024.47;5133399;27;20203;-74
2022/09/25 06:37:18;;;;;;;15.93;9.77;;;;;;;11.19;86.25;95017.38;5133971;27;20211;-74
2022/09/25 06:39:45;;;;;;;20.00;10.33;;;;;;;11.22;85.22;95012.53;5134609;27;20202;-74
2022/09/25 06:42:13;;;;;;;16.77;9.53;;;;;;;11.34;84.82;95018.63;5131952;27;20195;-74
2022/09/25 06:44:40;;;;;;;17.80;10.43;;;;;;;11.45;84.27;95024.16;5132922;27;20210;-74
2022/09/25 06:47:09;;;;;;;17.40;9.93;;;;;;;11.61;83.67;95013.19;5129791;27;20283;-73
2022/09/25 06:49:36;;;;;;;14.93;9.27;;;;;;;11.72;83.23;95015.09;5133577;27;20226;-74
2022/09/25 06:52:03;;;;;;;15.17;9.87;;;;;;;11.58;82.44;95001.41;5134768;27;20214;-74
2022/09/25 06:54:30;;;;;;;15.20;10.67;;;;;;;11.81;81.75;95013.81;5136040;27;20203;-74
2022/09/25 06:56:57;;;;;;;17.57;10.50;;;;;;;11.89;82.28;95014.31;5133941;27;20303;-74
2022/09/25 06:59:25;;;;;;;17.57;10.43;;;;;;;11.99;82.38;95010.41;5133500;27;20199;-74
2022/09/25 07:01:52;;;;;;;23.33;10.93;;;;;;;12.09;81.28;95024.50;5133684;27;20201;-74
2022/09/25 07:04:18;;;;;;;19.17;10.37;;;;;;;12.07;79.69;95036.97;5131509;27;20210;-74
2022/09/25 07:06:45;;;;;;;17.17;10.43;;;;;;;12.07;79.78;95038.78;5132683;27;20199;-74
2022/09/25 07:09:12;;;;;;;14.77;10.37;;;;;;;12.14;80.06;95035.09;5132948;27;20195;-73
2022/09/25 07:11:42;;;;;;;17.73;10.57;;;;;;;12.22;79.95;95036.59;5133798;27;20227;-73
2022/09/25 07:14:10;;;;;;;16.03;10.70;;;;;;;12.22;79.02;95047.03;5134607;27;20195;-74
2022/09/25 07:16:38;;;;;;;16.87;10.93;;;;;;;12.27;78.47;95044.56;5135235;27;20689;-75
2022/09/25 07:19:06;;;;;;;16.23;10.43;;;;;;;12.30;78.50;95051.94;5132110;27;20199;-74
2022/09/25 07:21:32;;;;;;;17.03;11.07;;;;;;;12.24;78.33;95060.63;5132576;27;20657;-75
2022/09/25 07:23:59;;;;;;;13.83;10.70;;;;;;;12.21;78.27;95053.25;5134153;27;20203;-74
2022/09/25 07:26:28;;;;;;;15.93;10.37;;;;;;;12.24;77.99;95045.00;5135555;27;20202;-74
2022/09/25 07:28:56;;;;;;;13.03;8.93;;;;;;;12.34;76.21;95053.91;5127790;27;20199;-74
2022/09/25 07:31:25;;;;;;;15.63;10.87;;;;;;;12.38;76.09;95052.44;5132153;27;20223;-75
2022/09/25 07:33:54;;;;;;;17.80;9.43;;;;;;;12.42;76.06;95042.38;5133255;27;20211;-75
2022/09/25 07:36:21;;;;;;;17.27;9.93;;;;;;;12.44;76.19;95037.72;5130403;27;20214;-76
2022/09/25 07:38:52;;;;;;;16.10;9.90;;;;;;;12.48;76.69;95024.06;5134265;27;20232;-78
2022/09/25 07:41:21;;;;;;;14.83;10.47;;;;;;;12.54;76.51;95011.94;5136126;27;20241;-78
2022/09/25 07:43:51;;;;;;;16.73;9.67;;;;;;;12.61;76.32;95014.47;5136957;27;20260;-77
2022/09/25 07:46:18;;;;;;;14.73;9.63;;;;;;;12.66;75.13;95012.81;5138212;27;20669;-77
2022/09/25 07:48:48;;;;;;;15.67;10.00;;;;;;;12.68;75.16;94999.53;5139435;27;20205;-78
2022/09/25 07:51:17;;;;;;;15.80;10.40;;;;;;;12.87;74.46;95009.66;5136198;27;20229;-77
2022/09/25 07:53:44;;;;;;;15.43;9.40;;;;;;;12.92;75.10;95003.81;5136568;27;20234;-77
2022/09/25 07:56:12;;;;;;;15.83;10.00;;;;;;;13.01;75.21;94992.03;5137692;27;20198;-77
2022/09/25 07:58:39;;;;;;;16.77;9.37;;;;;;;13.11;73.94;94994.91;5138047;27;20214;-78
2022/09/25 08:01:08;;;;;;;15.47;9.80;;;;;;;13.18;73.30;94989.59;5133744;27;20217;-78
2022/09/25 08:03:34;;;;;;;16.43;9.43;;;;;;;13.29;73.04;94996.63;5136606;27;20288;-77
2022/09/25 08:06:03;;;;;;;16.27;9.73;;;;;;;13.35;72.06;94998.34;5137112;27;20198;-77
2022/09/25 08:08:34;;;;;;;13.30;9.43;;;;;;;13.20;72.67;95005.81;5134685;27;20207;-77
2022/09/25 08:11:01;;;;;;;15.67;9.03;;;;;;;13.12;72.81;94996.50;5138554;27;20643;-77
2022/09/25 08:13:28;;;;;;;15.40;9.80;;;;;;;12.92;74.38;94991.56;5132665;27;20656;-77
2022/09/25 08:15:56;;;;;;;15.00;9.73;;;;;;;13.04;73.10;94994.97;5133750;27;20203;-77
2022/09/25 08:18:23;;;;;;;13.03;9.53;;;;;;;13.17;71.95;94987.97;5136600;27;20227;-77
2022/09/25 08:20:51;;;;;;;14.83;9.40;;;;;;;13.33;71.24;94977.66;5138177;27;20207;-77
2022/09/25 08:23:18;;;;;;;13.53;9.57;;;;;;;13.62;70.58;94987.19;5134719;27;20239;-78
2022/09/25 08:25:48;;;;;;;14.83;10.10;;;;;;;13.92;69.74;94988.88;5135859;27;20210;-78
2022/09/25 08:28:16;;;;;;;15.83;9.43;;;;;;;14.18;68.65;94972.69;5135727;27;20199;-78
2022/09/25 08:30:43;;;;;;;14.23;9.57;;;;;;;14.40;68.09;94968.41;5135241;27;20226;-78
2022/09/25 08:33:12;;;;;;;9.50;7.77;;;;;;;14.59;66.49;94969.84;5137583;27;20301;-77
2022/09/25 08:35:39;;;;;;;13.13;8.03;;;;;;;14.64;64.87;94962.06;5133778;27;20192;-77
2022/09/25 08:38:06;;;;;;;12.83;8.77;;;;;;;14.22;67.82;94950.28;5127937;27;20285;-77
2022/09/25 08:40:38;;;;;;;15.17;8.43;;;;;;;14.22;68.90;94945.06;5132634;27;20198;-77
2022/09/25 08:43:07;;;;;;;14.50;8.90;;;;;;;14.45;66.96;94960.69;5129950;27;20207;-72
2022/09/25 08:51:12;;;;;;;14.17;8.40;;;;;;;15.60;64.33;94966.25;5134339;27;20254;-75
2022/09/25 08:53:42;;;;;;;16.50;7.53;;;;;;;15.97;62.38;94973.53;5136073;27;20696;-75
2022/09/25 08:56:16;;;;;;;11.17;8.13;;;;;;;16.35;61.66;94973.47;5137881;27;20202;-75
2022/09/25 08:58:51;;;;;;;13.70;8.13;;;;;;;16.64;58.99;94964.38;5138328;27;20198;-75
2022/09/25 09:01:22;;;;;;;11.10;7.33;;;;;;;16.91;58.05;94959.91;5135304;27;20203;-75
2022/09/25 09:03:55;;;;;;;13.80;7.20;;;;;;;17.09;56.86;94955.31;5136551;27;20203;-73
2022/09/25 09:06:25;;;;;;;8.07;6.30;;;;;;;16.67;58.08;94955.22;5133160;27;20214;-76
2022/09/25 09:08:56;;;;;;;11.80;6.60;;;;;;;16.59;57.38;94948.59;5134206;27;20287;-73
2022/09/25 09:11:28;;;;;;;10.77;6.50;;;;;;;17.00;55.92;94947.09;5134749;27;20242;-72
2022/09/25 09:14:01;;;;;;;8.80;6.30;;;;;;;17.52;53.94;94953.28;5135661;27;20604;-73
2022/09/25 09:16:34;;;;;;;9.00;6.67;;;;;;;18.10;52.56;94947.03;5133409;27;20658;-74
2022/09/25 09:19:06;;;;;;;10.17;6.40;;;;;;;18.57;50.85;94930.38;5131420;27;20202;-73
2022/09/25 09:21:35;;;;;;;11.00;6.35;;;;;;;18.81;50.01;94928.84;5130485;27;20191;-73
2022/09/25 09:24:10;;;;;;;11.80;6.15;;;;;;;19.21;50.64;94930.69;5130153;27;20286;-73
2022/09/25 09:26:52;;;;;;;10.27;6.63;;;;;;;19.57;49.19;94932.25;5132187;27;20205;-72
2022/09/25 09:29:30;;;;;;;8.50;6.30;;;;;;;19.75;48.67;94933.53;5131602;27;20196;-74
2022/09/25 09:32:10;;;;;;;12.05;6.03;;;;;;;19.94;62.33;94933.75;5130176;27;20214;-74
2022/09/25 09:34:50;;;;;;;13.55;6.95;;;;;;;20.04;49.78;94925.81;5132443;27;20275;-75
2022/09/25 09:37:24;;;;;;;8.88;6.50;;;;;;;20.18;48.68;94930.22;5130800;27;20698;-81
2022/09/25 09:40:02;;;;;;;8.43;6.00;;;;;;;20.43;48.78;94931.22;5133157;27;20689;-80
2022/09/25 09:42:42;;;;;;;9.65;6.20;;;;;;;20.91;48.08;94919.81;5128273;27;20191;-79
2022/09/25 09:45:19;;;;;;;9.90;5.90;;;;;;;21.49;45.92;94920.69;5130293;27;20226;-78
2022/09/25 09:47:54;;;;;;;8.15;6.13;;;;;;;21.76;43.98;94922.81;5135538;27;20202;-78
2022/09/25 09:50:35;;;;;;;8.63;5.97;;;;;;;22.07;42.73;94920.63;5133158;27;20203;-79
2022/09/25 09:53:13;;;;;;;8.07;5.75;;;;;;;22.32;41.71;94918.47;5132390;27;20264;-79
2022/09/25 09:55:43;;;;;;;9.93;5.82;;;;;;;22.11;42.65;94911.81;5134131;27;20222;-78
2022/09/25 09:58:18;;;;;;;8.68;5.50;;;;;;;22.16;43.37;94909.13;5133315;27;20203;-79
2022/09/25 10:00:48;;;;;;;7.78;5.82;;;;;;;22.49;42.34;94910.03;5132193;27;20187;-78
2022/09/25 10:03:22;;;;;;;6.57;5.43;;;;;;;22.79;40.81;94920.25;5132736;27;20199;-80
2022/09/25 10:05:51;;;;;;;8.48;5.20;;;;;;;22.48;41.91;94897.88;5133616;27;20203;-80
2022/09/25 10:08:18;;;;;;;6.50;4.70;;;;;;;21.99;42.51;94903.53;5133635;27;21184;-79
2022/09/25 10:10:47;;;;;;;7.70;4.65;;;;;;;21.43;44.10;94906.72;5130293;27;20207;-78
2022/09/25 10:13:19;;;;;;;11.93;5.20;;;;;;;21.50;43.25;94906.38;5130696;27;20213;-78
2022/09/25 10:15:51;;;;;;;5.70;4.78;;;;;;;21.63;42.91;94903.09;5136165;27;20207;-77
2022/09/25 10:18:19;;;;;;;10.80;5.32;;;;;;;21.52;43.58;94895.53;5131344;27;20215;-77
2022/09/25 10:20:51;;;;;;;7.10;5.03;;;;;;;21.40;43.30;94894.06;5134131;27;20207;-77
2022/09/25 10:23:38;;;;;;;9.13;5.25;;;;;;;21.98;44.25;94888.69;5132153;27;21066;-87
2022/09/25 10:26:23;;;;;;;8.88;5.18;;;;;;;22.83;39.56;94899.25;5133586;27;20693;-87
2022/09/25 10:28:50;;;;;;;6.78;4.93;;;;;;;23.35;38.78;94896.25;5143197;27;20226;-77
2022/09/25 10:31:20;;;;;;;6.10;4.68;;;;;;;23.85;37.38;94876.00;5127597;27;20991;-77
2022/09/25 10:34:00;;;;;;;8.82;5.38;;;;;;;23.97;35.14;94878.16;5133474;27;20911;-77
2022/09/25 10:36:38;;;;;;;8.65;4.65;;;;;;;23.78;35.51;94880.91;5133332;27;20211;-77
2022/09/25 10:39:26;;;;;;;8.00;4.38;;;;;;;23.85;36.03;94877.88;5134117;27;20230;-77
2022/09/25 10:41:54;;;;;;;9.48;4.78;;;;;;;24.35;35.63;94876.09;5132610;27;20218;-78
2022/09/25 10:44:23;;;;;;;6.25;4.43;;;;;;;24.82;34.73;94879.03;5132304;27;20234;-81
2022/09/25 10:52:48;;;;;;;8.20;4.40;;;;;;;26.21;32.36;94881.34;5128912;27;20666;-77
2022/09/25 10:55:23;;;;;;;5.20;4.20;;;;;;;26.14;31.96;94873.84;5130856;27;20217;-75
2022/09/25 10:57:57;;;;;;;6.93;4.22;;;;;;;26.47;31.89;94871.53;5134268;27;20218;-75
2022/09/25 11:00:25;;;;;;;6.38;4.50;;;;;;;26.91;30.99;94865.94;5133857;27;20195;-76
2022/09/25 11:02:57;;;;;;;6.90;4.10;;;;;;;26.84;30.47;94860.28;5133839;27;20209;-76
2022/09/25 11:05:28;;;;;;;7.05;4.00;;;;;;;27.16;30.12;94867.00;5132451;27;20188;-77
2022/09/25 11:07:59;;;;;;;4.70;4.22;;;;;;;27.28;29.25;94863.66;5130108;27;20191;-77
2022/09/25 11:10:29;;;;;;;5.68;4.05;;;;;;;27.17;29.60;94863.22;5132239;27;20195;-78
2022/09/25 11:12:58;;;;;;;8.45;3.70;;;;;;;27.52;29.65;94859.41;5128618;27;20234;-77
2022/09/25 11:15:27;;;;;;;6.43;3.83;;;;;;;27.77;29.12;94864.97;5132159;27;20199;-77
2022/09/25 11:17:57;;;;;;;8.82;4.03;;;;;;;28.21;28.71;94853.00;5130074;27;20195;-77
2022/09/25 11:20:29;;;;;;;6.88;3.90;;;;;;;28.55;27.49;94855.44;5130794;27;20673;-74
2022/09/25 11:23:27;;;;;;;5.60;4.05;;;;;;;28.62;26.69;94831.63;5096850;22;20239;-89
2022/09/25 11:26:06;;;;;;;5.32;3.80;;;;;;;29.01;26.30;94849.09;5066414;28;20189;-89
2022/09/25 11:28:39;;;;;;;6.30;3.90;;;;;;;28.68;26.21;94862.47;5072297;28;20200;-89
2022/09/25 11:31:15;;;;;;;6.53;4.22;;;;;;;28.30;26.89;94851.84;5070125;28;20194;-91
2022/09/25 11:33:50;;;;;;;6.40;4.15;;;;;;;28.59;26.25;94822.38;5068473;28;20312;-90
2022/09/25 11:36:20;;;;;;;7.55;4.10;;;;;;;29.03;25.59;94830.84;5065942;28;20197;-91
2022/09/25 11:41:41;;;;;;;4.93;3.45;;;;;;;29.57;25.21;94818.94;5065483;28;20258;-92
2022/09/25 11:44:17;;;;;;;4.55;3.10;;;;;;;29.83;25.08;94818.66;5061652;28;20205;-89
2022/09/25 11:46:53;;;;;;;5.22;3.63;;;;;;;30.12;24.55;94817.63;5069197;28;20259;-90
2022/09/25 11:49:25;;;;;;;4.45;3.65;;;;;;;30.14;23.66;94804.66;5064075;28;20200;-91
2022/09/25 11:52:20;;;;;;;5.30;3.80;;;;;;;30.56;24.48;94821.28;5064753;28;20265;-91
2022/09/25 11:55:15;;;;;;;6.55;3.60;;;;;;;30.65;23.80;94819.22;5059426;28;20209;-88
2022/09/25 11:57:54;;;;;;;8.23;3.55;;;;;;;30.76;22.99;94801.53;5068341;28;20201;-88
2022/09/25 12:00:26;;;;;;;7.30;3.85;;;;;;;30.92;22.98;94802.34;5064087;28;20225;-93
2022/09/25 12:03:09;;;;;;;4.00;3.03;;;;;;;31.06;24.01;94800.06;5064762;28;20716;-90